Terminal Aerodrome Forecast
Issued by NWS

Home | Current Version | Previous Version | Text Only | Print | Product List | Glossary On
Versions: 1 2 3 4 5 6 7 8 9 10 11 12 13 14 15 16 17 18 19
000
FTUS43 KSGF 222300
TAFJLN
TAF
KJLN 222335Z 2300/2324 17012KT P6SM FEW015 BKN040 OVC150
      WS020/20045KT
      TEMPO 2300/2303 BKN015
     FM230700 17013KT 6SM BR VCSH BKN012 OVC040 WS020/20045KT
     FM231100 16011KT 4SM -SHRA BR VCTS OVC012CB
     FM231600 18011KT 5SM -DZ OVC012
     FM232200 26011KT 6SM -SHRA BR VCTS OVC012CB=

USA.gov is the U.S. government's official web portal to all federal, state and local government web resources and services.